Airport Name : Mount Pleasant

Other Name : Mount Pleasant

ICAO : EGYP

IATA : MPN

FAA :

Latitude : -51.822777

Longitude : -58.447222

Local Date and Time : 01 Jan 0001 00:00

 

TAF (Terminal Aerodrome Forecast)

TAF EGYP 221959Z 2221/2315 21015KT 9999 SCT030 TEMPO 2221/2307 7000 SHRA -SHRASN BKN015 PROB40 TEMPO 2221/2315 22018G28KT 3000 +SHRA SHRASN SCT006 BKN015CB PROB30 TEMPO 2300/2315 1000 SHSN SCT004 BKN015CB TEMPO 2307/2315 7000 SHRA -SHRASN BKN010 BECMG 2312/2315 26015KT

 

METAR (METeorological Aerodrome Report)

EGYP 221950Z 19017KT 9999 -SHRA BKN018 03/01 Q1003

EGYP 221850Z 24013KT 3000 SHRA SCT010 BKN017 04/03 Q1002

EGYP 221750Z 27009KT 9999 FEW012 BKN033 05/04 Q1001